createdAt,value
2023-01-13T00:04:13.498Z,99348.49
2023-01-13T00:09:16.298Z,99345.95
2023-01-13T00:14:19.109Z,99332.69
2023-01-13T00:19:22.211Z,99323.98
2023-01-13T00:24:25.220Z,99322.32
2023-01-13T00:29:28.119Z,99319.48
2023-01-13T00:34:31.028Z,99321.55
2023-01-13T00:39:33.932Z,99336.26
2023-01-13T00:44:36.832Z,99323.00
2023-01-13T00:49:39.634Z,99316.34
2023-01-13T00:54:42.434Z,99327.45
2023-01-13T00:59:45.242Z,99334.51
2023-01-13T01:04:48.043Z,99321.55
2023-01-13T01:09:50.842Z,99305.77
2023-01-13T01:14:53.640Z,99302.09
2023-01-13T01:19:56.544Z,99291.63
2023-01-13T01:24:59.975Z,99290.64
2023-01-13T01:30:02.865Z,99283.26
2023-01-13T01:35:06.780Z,99275.74
2023-01-13T01:40:10.911Z,99268.11
2023-01-13T01:45:25.300Z,99265.31
2023-01-13T01:50:29.842Z,99260.67
2023-01-13T01:55:37.150Z,99260.80
2023-01-13T02:00:40.652Z,99255.23
2023-01-13T02:05:43.676Z,99246.42
2023-01-13T02:10:53.423Z,99237.56
2023-01-13T02:16:07.989Z,99233.27
2023-01-13T02:21:32.641Z,99225.04
2023-01-13T02:26:38.401Z,99224.17
2023-01-13T02:31:46.493Z,99213.84
2023-01-13T02:36:55.482Z,99211.84
2023-01-13T02:42:27.681Z,99211.54
2023-01-13T02:47:36.136Z,99204.21
2023-01-13T02:52:46.177Z,99205.71
2023-01-13T02:57:50.921Z,99193.15
2023-01-13T03:02:54.324Z,99186.77
2023-01-13T03:08:15.866Z,99182.52
2023-01-13T03:13:37.030Z,99177.15
2023-01-13T03:18:52.695Z,99175.01
2023-01-13T03:24:28.068Z,99168.08
2023-01-13T03:29:42.837Z,99164.99
2023-01-13T03:34:54.141Z,99161.42
2023-01-13T03:40:05.047Z,99156.91
2023-01-13T03:45:14.412Z,99151.32
2023-01-13T03:50:49.581Z,99156.29
2023-01-13T03:55:58.620Z,99146.85
2023-01-13T04:01:11.377Z,99147.04
2023-01-13T04:06:38.349Z,99142.80
2023-01-13T04:11:52.076Z,99141.70
2023-01-13T04:16:56.336Z,99139.11
2023-01-13T04:21:59.722Z,99134.19
2023-01-13T04:27:03.041Z,99134.97
2023-01-13T04:32:05.840Z,99135.41
2023-01-13T04:37:08.643Z,99125.07
2023-01-13T04:42:11.462Z,99131.77
2023-01-13T04:47:14.244Z,99137.25
2023-01-13T04:52:17.060Z,99137.67
2023-01-13T04:57:19.849Z,99129.52
2023-01-13T05:02:22.701Z,99131.56
2023-01-13T05:07:25.532Z,99129.98
2023-01-13T05:12:46.637Z,99129.02
2023-01-13T05:17:50.386Z,99129.47
2023-01-13T05:23:11.595Z,99129.42
2023-01-13T05:28:14.557Z,99134.66
2023-01-13T05:33:20.448Z,99140.05
2023-01-13T05:38:23.307Z,99136.88
2023-01-13T05:43:27.217Z,99142.06
2023-01-13T05:48:39.517Z,99146.19
2023-01-13T05:53:42.286Z,99138.58
2023-01-13T05:58:45.029Z,99141.64
2023-01-13T06:03:47.716Z,99140.02
2023-01-13T06:08:50.453Z,99135.34
2023-01-13T06:13:53.487Z,99141.86
2023-01-13T06:18:56.292Z,99145.23
2023-01-13T06:23:59.579Z,99146.41
2023-01-13T06:29:02.234Z,99146.41
2023-01-13T06:34:11.669Z,99147.95
2023-01-13T06:39:20.713Z,99151.36
2023-01-13T06:44:24.637Z,99148.36
2023-01-13T06:49:27.437Z,99148.46
2023-01-13T06:54:30.748Z,99151.98
2023-01-13T06:59:36.234Z,99153.10
2023-01-13T07:04:39.017Z,99155.39
2023-01-13T07:09:41.814Z,99163.05
2023-01-13T07:15:03.267Z,99173.66
2023-01-13T07:20:07.090Z,99180.13
2023-01-13T07:25:10.688Z,99177.62
2023-01-13T07:30:14.044Z,99171.54
2023-01-13T07:35:21.889Z,99180.64
2023-01-13T07:40:24.668Z,99181.17
2023-01-13T07:45:27.459Z,99184.64
2023-01-13T07:50:30.233Z,99190.36
2023-01-13T07:55:32.925Z,99195.56
2023-01-13T08:00:36.969Z,99189.89
2023-01-13T08:05:40.075Z,99198.94
2023-01-13T08:10:43.096Z,99196.92
2023-01-13T08:15:48.527Z,99205.38
2023-01-13T08:20:52.798Z,99205.86
2023-01-13T08:26:02.096Z,99210.97
2023-01-13T08:31:07.402Z,99215.04
2023-01-13T08:36:12.493Z,99223.19
2023-01-13T08:41:36.938Z,99225.58
2023-01-13T08:46:39.776Z,99221.24
2023-01-13T08:51:42.780Z,99232.70
2023-01-13T08:56:46.140Z,99233.98
2023-01-13T09:01:49.520Z,99237.30
2023-01-13T09:06:52.619Z,99249.26
2023-01-13T09:12:14.527Z,99247.50
2023-01-13T09:17:18.548Z,99242.92
2023-01-13T09:22:22.060Z,99240.35
2023-01-13T09:27:25.016Z,99235.52
2023-01-13T09:32:27.767Z,99239.35
2023-01-13T09:37:34.433Z,99236.88
2023-01-13T09:43:05.885Z,99236.36
2023-01-13T09:48:30.295Z,99232.13
2023-01-13T09:53:59.624Z,99234.33
2023-01-13T09:59:02.622Z,99235.67
2023-01-13T10:04:12.397Z,99229.89
2023-01-13T10:09:21.346Z,99218.05
2023-01-13T10:14:35.917Z,99218.30
2023-01-13T10:19:43.680Z,99211.02
2023-01-13T10:25:27.050Z,99204.38
2023-01-13T10:30:40.354Z,99196.48
2023-01-13T10:35:55.219Z,99205.98
2023-01-13T10:41:01.191Z,99211.04
2023-01-13T10:46:05.976Z,99222.79
2023-01-13T10:51:19.255Z,99220.29
2023-01-13T10:56:25.370Z,99209.89
2023-01-13T11:01:30.600Z,99220.14
2023-01-13T11:06:36.279Z,99216.63
2023-01-13T11:11:47.191Z,99206.42
2023-01-13T11:16:56.278Z,99207.70
2023-01-13T11:22:08.773Z,99201.93
2023-01-13T11:27:14.240Z,99202.26
2023-01-13T11:32:20.532Z,99203.61
2023-01-13T11:37:31.379Z,99198.23
2023-01-13T11:42:44.350Z,99206.91
2023-01-13T11:47:51.910Z,99201.27
2023-01-13T11:53:12.371Z,99201.98
2023-01-13T11:58:50.646Z,99207.40
2023-01-13T12:04:20.957Z,99212.20
2023-01-13T12:09:35.222Z,99208.69
2023-01-13T12:14:54.189Z,99205.83
2023-01-13T12:19:57.336Z,99209.02
2023-01-13T12:25:14.147Z,99204.50
2023-01-13T12:30:40.694Z,99203.06
2023-01-13T12:35:56.380Z,99211.49
2023-01-13T12:41:16.926Z,99212.15
2023-01-13T12:46:19.659Z,99217.05
2023-01-13T12:51:25.824Z,99211.98
2023-01-13T12:56:42.182Z,99215.29
2023-01-13T13:01:47.464Z,99221.28
2023-01-13T13:07:04.751Z,99218.48
2023-01-13T13:12:51.426Z,99221.50
2023-01-13T13:18:17.546Z,99222.61
2023-01-13T13:23:38.963Z,99222.34
2023-01-13T13:28:53.771Z,99222.97
2023-01-13T13:34:25.969Z,99232.66
2023-01-13T13:39:51.318Z,99233.92
2023-01-13T13:45:14.334Z,99231.82
2023-01-13T13:50:20.892Z,99239.84
2023-01-13T13:55:26.812Z,99238.30
2023-01-13T14:00:36.042Z,99243.42
2023-01-13T14:05:38.845Z,99243.35
2023-01-13T14:10:44.939Z,99243.67
2023-01-13T14:16:00.668Z,99240.02
2023-01-13T14:21:18.742Z,99238.94
2023-01-13T14:26:32.400Z,99240.03
2023-01-13T14:31:35.599Z,99243.01
2023-01-13T14:36:39.448Z,99241.34
2023-01-13T14:41:42.223Z,99246.95
2023-01-13T14:46:46.047Z,99258.64
2023-01-13T14:51:48.847Z,99253.06
2023-01-13T14:56:53.952Z,99236.52
2023-01-13T15:01:57.722Z,99243.64
2023-01-13T15:07:01.651Z,99242.81
2023-01-13T15:12:24.007Z,99248.83
2023-01-13T15:17:28.843Z,99257.79
2023-01-13T15:22:31.495Z,99261.20
2023-01-13T15:27:34.253Z,99263.98
2023-01-13T15:32:37.367Z,99259.02
2023-01-13T15:37:41.008Z,99259.01
2023-01-13T15:43:02.518Z,99262.48
2023-01-13T15:48:06.039Z,99269.62
2023-01-13T15:53:14.437Z,99272.57
2023-01-13T15:58:20.790Z,99268.84
2023-01-13T16:03:24.257Z,99274.31
2023-01-13T16:08:27.003Z,99279.13
2023-01-13T16:13:29.790Z,99269.80
2023-01-13T16:18:32.594Z,99260.68
2023-01-13T16:23:35.317Z,99255.11
2023-01-13T16:28:38.114Z,99258.34
2023-01-13T16:33:41.453Z,99255.70
2023-01-13T16:38:44.456Z,99255.73
2023-01-13T16:43:48.532Z,99268.90
2023-01-13T16:48:53.309Z,99271.35
2023-01-13T16:53:56.359Z,99274.83
2023-01-13T16:59:14.417Z,99273.13
2023-01-13T17:04:19.889Z,99276.53
2023-01-13T17:09:25.666Z,99284.94
2023-01-13T17:14:28.393Z,99272.93
2023-01-13T17:19:31.204Z,99280.27
2023-01-13T17:24:35.299Z,99282.65
2023-01-13T17:29:38.648Z,99287.87
2023-01-13T17:34:41.447Z,99284.52
2023-01-13T17:39:46.495Z,99292.89
2023-01-13T17:44:50.608Z,99287.46
2023-01-13T17:49:53.311Z,99289.98
2023-01-13T17:54:56.208Z,99287.28
2023-01-13T17:59:59.747Z,99290.95
2023-01-13T18:05:02.630Z,99292.27
2023-01-13T18:10:06.194Z,99300.67
2023-01-13T18:15:09.646Z,99305.63
2023-01-13T18:20:35.399Z,99307.92
2023-01-13T18:25:58.060Z,99307.20
2023-01-13T18:31:00.909Z,99303.52
2023-01-13T18:36:08.021Z,99315.06
2023-01-13T18:41:30.845Z,99323.65
2023-01-13T18:46:33.584Z,99323.73
2023-01-13T18:51:36.304Z,99325.95
2023-01-13T18:56:39.016Z,99336.02
2023-01-13T19:01:42.870Z,99344.73
2023-01-13T19:06:49.868Z,99347.91
2023-01-13T19:11:53.277Z,99355.57
2023-01-13T19:16:55.984Z,99363.20
2023-01-13T19:21:58.886Z,99364.17
2023-01-13T19:27:01.806Z,99374.27
2023-01-13T19:32:05.424Z,99376.20
2023-01-13T19:37:08.523Z,99377.98
2023-01-13T19:42:31.393Z,99377.16
2023-01-13T19:47:34.433Z,99381.57
2023-01-13T19:52:37.327Z,99387.39
2023-01-13T19:57:40.870Z,99386.69
2023-01-13T20:02:49.549Z,99387.08
2023-01-13T20:07:53.000Z,99389.86
2023-01-13T20:12:55.890Z,99397.65
2023-01-13T20:17:58.897Z,99400.41
2023-01-13T20:23:01.698Z,99409.80
2023-01-13T20:28:05.353Z,99410.48
2023-01-13T20:33:08.516Z,99414.38
2023-01-13T20:38:12.291Z,99410.82
2023-01-13T20:43:16.627Z,99419.88
2023-01-13T20:48:20.883Z,99425.66
2023-01-13T20:53:23.629Z,99436.00
2023-01-13T20:58:26.431Z,99434.91
2023-01-13T21:03:29.413Z,99435.56
2023-01-13T21:08:32.433Z,99435.48
2023-01-13T21:13:53.618Z,99444.29
2023-01-13T21:19:08.232Z,99442.06
2023-01-13T21:24:10.948Z,99437.63
2023-01-13T21:29:13.762Z,99441.14
2023-01-13T21:34:16.565Z,99448.59
2023-01-13T21:39:19.504Z,99451.84
2023-01-13T21:44:41.006Z,99450.80
2023-01-13T21:49:45.413Z,99448.89
2023-01-13T21:55:06.823Z,99444.79
2023-01-13T22:00:10.744Z,99444.17
2023-01-13T22:05:15.777Z,99439.05
2023-01-13T22:10:23.708Z,99441.92
2023-01-13T22:15:29.054Z,99450.65
2023-01-13T22:20:31.849Z,99447.70
2023-01-13T22:25:34.655Z,99447.08
2023-01-13T22:30:39.010Z,99454.42
2023-01-13T22:35:41.676Z,99454.34
2023-01-13T22:40:44.374Z,99462.97
2023-01-13T22:45:57.580Z,99468.84
2023-01-13T22:51:15.190Z,99473.08
2023-01-13T22:56:21.668Z,99475.97
2023-01-13T23:01:26.736Z,99483.70
2023-01-13T23:06:31.785Z,99476.55
2023-01-13T23:11:35.414Z,99474.42
2023-01-13T23:16:40.404Z,99475.41
2023-01-13T23:21:43.295Z,99479.81
2023-01-13T23:26:46.156Z,99477.68
2023-01-13T23:31:48.966Z,99470.15
2023-01-13T23:36:51.765Z,99470.42
2023-01-13T23:41:55.013Z,99477.48
2023-01-13T23:46:57.781Z,99473.05
2023-01-13T23:52:00.899Z,99464.63
2023-01-13T23:57:03.687Z,99468.24
